Time;durP1;ratioP1;P1;durP2;ratioP2;P2;SDS_P1;SDS_P2;PMS_P1;PMS_P2;Temp;Humidity;BMP_temperature;BMP_pressure;BME280_temperature;BME280_humidity;BME280_pressure;Samples;Min_cycle;Max_cycle;Signal;HPM_P1;HPM_P2
2022/06/19 00:02:02;;;;;;;31.63;6.25;;;;;;;19.35;62.05;100978.81;4926553;28;119878;-79
2022/06/19 00:04:28;;;;;;;27.30;5.85;;;;;;;19.33;62.12;100971.00;4928404;28;119872;-80
2022/06/19 00:06:56;;;;;;;25.17;5.75;;;;;;;19.36;62.52;100965.69;4921143;28;119968;-80
2022/06/19 00:09:24;;;;;;;26.38;5.82;;;;;;;19.31;61.73;100958.84;4919985;28;119576;-80
2022/06/19 00:11:49;;;;;;;18.55;4.60;;;;;;;19.29;61.99;100947.47;4929244;28;119834;-80
2022/06/19 00:14:21;;;;;;;18.38;4.78;;;;;;;19.32;61.93;100944.44;4931914;28;119863;-80
2022/06/19 00:16:50;;;;;;;31.00;6.72;;;;;;;19.33;61.95;100953.53;4934205;28;120372;-80
2022/06/19 00:19:17;;;;;;;30.90;5.68;;;;;;;19.32;61.75;100955.56;4942245;28;119817;-80
2022/06/19 00:21:44;;;;;;;20.80;5.68;;;;;;;19.30;62.12;100946.22;4930933;28;119636;-81
2022/06/19 00:24:18;;;;;;;24.42;5.40;;;;;;;19.28;61.99;100930.03;4942360;28;119549;-80
2022/06/19 00:26:44;;;;;;;25.80;4.85;;;;;;;19.33;62.06;100945.97;4911683;28;119993;-81
2022/06/19 00:29:10;;;;;;;22.88;5.35;;;;;;;19.34;62.07;100946.72;4926657;28;120049;-80
2022/06/19 00:31:36;;;;;;;16.63;5.00;;;;;;;19.35;62.08;100939.88;4931675;28;119460;-81
2022/06/19 00:34:02;;;;;;;21.40;5.50;;;;;;;19.37;62.46;100936.59;4928772;28;119666;-80
2022/06/19 00:36:28;;;;;;;24.50;6.00;;;;;;;19.36;62.25;100938.63;4929509;28;119731;-80
2022/06/19 00:38:55;;;;;;;23.55;5.43;;;;;;;19.37;62.27;100950.50;4930561;28;119547;-80
2022/06/19 00:41:22;;;;;;;22.92;5.22;;;;;;;19.37;62.53;100953.28;4930237;28;119849;-81
2022/06/19 00:43:57;;;;;;;29.10;5.50;;;;;;;19.36;62.47;100955.31;4911637;28;120833;-81
2022/06/19 00:46:42;;;;;;;24.60;6.45;;;;;;;19.36;62.34;100972.00;4931223;28;119567;-79
2022/06/19 00:49:13;;;;;;;21.63;5.70;;;;;;;19.32;62.40;100968.72;4944285;28;120015;-80
2022/06/19 00:51:39;;;;;;;23.33;5.65;;;;;;;19.34;62.37;100960.63;4926770;28;119478;-80
2022/06/19 00:54:07;;;;;;;24.45;5.60;;;;;;;19.35;62.52;100967.69;4928619;28;119486;-80
2022/06/19 00:56:33;;;;;;;19.83;5.47;;;;;;;19.36;62.97;100966.44;4932132;28;119560;-79
2022/06/19 00:58:59;;;;;;;27.52;5.80;;;;;;;19.33;62.56;100953.53;4936560;28;119792;-80
2022/06/19 01:01:28;;;;;;;25.02;5.55;;;;;;;19.35;62.08;100944.69;4928184;28;120032;-80
2022/06/19 01:04:08;;;;;;;20.77;4.75;;;;;;;19.34;62.22;100946.72;4928538;28;119516;-80
2022/06/19 01:06:57;;;;;;;20.42;5.20;;;;;;;19.31;62.15;100929.03;4931098;28;120638;-80
2022/06/19 01:09:23;;;;;;;27.25;5.93;;;;;;;19.26;61.53;100904.75;4942947;28;119617;-80
2022/06/19 01:11:50;;;;;;;23.92;5.45;;;;;;;19.27;61.83;100902.72;4929030;28;119622;-80
2022/06/19 01:14:20;;;;;;;26.23;6.30;;;;;;;19.27;62.34;100884.03;4909758;28;119695;-81
2022/06/19 01:16:46;;;;;;;29.83;6.55;;;;;;;19.26;62.01;100867.84;4912173;28;119412;-80
2022/06/19 01:19:23;;;;;;;22.13;5.18;;;;;;;19.27;61.68;100861.00;4932096;28;119988;-81
2022/06/19 01:21:56;;;;;;;25.00;5.97;;;;;;;19.18;61.97;100848.13;4931705;28;120430;-79
2022/06/19 01:24:41;;;;;;;;;;;;;;;19.20;61.75;100834.47;4926687;28;119681;-80
2022/06/19 01:30:13;;;;;;;26.55;5.43;;;;;;;19.21;62.29;100830.44;4933861;28;119490;-80
2022/06/19 01:32:39;;;;;;;24.65;5.22;;;;;;;19.22;62.11;100834.72;4931002;28;120203;-79
2022/06/19 01:35:08;;;;;;;20.60;5.03;;;;;;;19.25;62.46;100838.50;4931094;28;119509;-81
2022/06/19 01:37:36;;;;;;;23.90;5.30;;;;;;;19.27;62.42;100838.75;4931928;28;119882;-80
2022/06/19 01:40:26;;;;;;;22.48;5.88;;;;;;;19.28;61.94;100834.72;4916571;28;121539;-81
2022/06/19 01:42:54;;;;;;;30.00;5.65;;;;;;;19.24;62.33;100834.22;4931425;28;119573;-79
2022/06/19 01:45:21;;;;;;;21.98;5.13;;;;;;;19.23;62.42;100841.03;4934238;28;120170;-80
2022/06/19 01:47:47;;;;;;;19.13;5.07;;;;;;;19.28;62.30;100857.72;4932521;28;119642;-80
2022/06/19 01:50:20;;;;;;;27.55;6.15;;;;;;;19.33;62.62;100872.88;4916026;28;119722;-81
2022/06/19 01:52:48;;;;;;;;;;;;;;;19.30;62.46;100865.56;4932396;28;121114;-80
2022/06/19 01:55:16;;;;;;;25.70;5.97;;;;;;;19.26;61.89;100846.34;4928684;28;119535;-79
2022/06/19 01:57:46;;;;;;;28.38;6.28;;;;;;;19.24;61.85;100846.09;4928407;28;119471;-79
2022/06/19 02:00:27;;;;;;;24.13;5.83;;;;;;;19.28;61.49;100854.19;4926219;28;120124;-80
2022/06/19 02:03:04;;;;;;;23.40;5.50;;;;;;;19.23;61.97;100868.84;4923420;28;120464;-80
2022/06/19 02:05:32;;;;;;;17.95;5.72;;;;;;;19.28;62.20;100893.13;4931227;28;119588;-80
2022/06/19 02:07:58;;;;;;;22.75;5.85;;;;;;;19.25;62.64;100881.00;4923825;28;120540;-80
2022/06/19 02:10:31;;;;;;;18.80;5.45;;;;;;;19.31;62.59;100894.88;4929528;28;119477;-79
2022/06/19 02:12:58;;;;;;;27.17;5.85;;;;;;;19.26;62.75;100909.56;4930445;28;119495;-80
2022/06/19 02:15:45;;;;;;;22.15;5.45;;;;;;;19.29;62.60;100922.44;4943106;28;118780;-80
2022/06/19 02:18:23;;;;;;;16.48;4.90;;;;;;;19.33;62.83;100932.06;4935308;28;119980;-79
2022/06/19 02:20:52;;;;;;;19.10;5.13;;;;;;;19.26;62.85;100901.97;4933096;28;119514;-80
2022/06/19 02:23:28;;;;;;;21.88;5.57;;;;;;;19.33;62.49;100886.78;4919476;28;121507;-79
2022/06/19 02:25:55;;;;;;;22.67;6.25;;;;;;;19.22;62.85;100859.75;4935223;28;119533;-79
2022/06/19 02:28:20;;;;;;;23.75;6.53;;;;;;;19.16;63.21;100835.97;4932907;28;119548;-80
2022/06/19 02:30:48;;;;;;;28.23;6.60;;;;;;;19.11;63.29;100837.50;4931942;28;120126;-79
2022/06/19 02:33:18;;;;;;;20.33;6.95;;;;;;;19.00;64.07;100848.63;4930989;28;119526;-80
2022/06/19 02:35:44;;;;;;;24.35;7.28;;;;;;;19.01;64.43;100845.34;4947596;28;119646;-81
2022/06/19 02:38:16;;;;;;;20.60;7.65;;;;;;;18.93;64.75;100822.09;4935700;28;119635;-79
2022/06/19 02:41:02;;;;;;;27.23;7.20;;;;;;;18.89;64.37;100862.50;4933280;28;119984;-80
2022/06/19 02:43:32;;;;;;;28.92;7.10;;;;;;;18.80;64.49;100891.31;4943385;28;119864;-80
2022/06/19 02:46:06;;;;;;;25.42;7.32;;;;;;;18.70;65.06;100931.72;4932634;28;119348;-80
2022/06/19 02:48:33;;;;;;;24.25;8.18;;;;;;;18.71;65.46;100963.78;4932776;28;119506;-80
2022/06/19 02:51:03;;;;;;;32.33;8.35;;;;;;;18.71;65.62;100911.00;4933548;28;119518;-80
2022/06/19 02:53:52;;;;;;;25.70;7.82;;;;;;;18.69;65.31;100891.25;4900747;28;119498;-81
2022/06/19 02:56:18;;;;;;;26.08;9.20;;;;;;;18.62;65.93;100909.19;4914732;28;120179;-80
2022/06/19 02:58:48;;;;;;;28.40;8.30;;;;;;;18.63;65.66;100854.38;4931081;28;119423;-80
2022/06/19 03:01:15;;;;;;;32.80;9.52;;;;;;;18.67;66.14;100979.91;4934971;28;119915;-80
2022/06/19 03:03:41;;;;;;;32.35;9.75;;;;;;;18.72;66.30;100940.31;4930587;28;119808;-80
2022/06/19 03:06:10;;;;;;;28.65;9.35;;;;;;;18.71;66.29;100866.53;4913945;28;119928;-80
2022/06/19 03:08:38;;;;;;;25.13;9.18;;;;;;;18.70;66.36;100901.91;4933361;28;119853;-80
2022/06/19 03:11:05;;;;;;;17.85;4.82;;;;;;;18.57;63.46;100886.94;4933175;28;119431;-80
2022/06/19 03:13:30;;;;;;;13.02;2.85;;;;;;;18.35;61.44;100882.81;4937538;28;119392;-79
2022/06/19 03:16:04;;;;;;;11.95;3.20;;;;;;;18.15;61.16;100926.63;4917253;28;119967;-79
2022/06/19 03:18:31;;;;;;;10.05;2.20;;;;;;;18.01;60.23;100917.25;4935915;28;119307;-80
2022/06/19 03:20:56;;;;;;;12.75;3.20;;;;;;;17.77;59.58;100849.00;4934974;28;119538;-80
2022/06/19 03:23:22;;;;;;;7.53;2.92;;;;;;;17.59;60.38;100892.97;4937721;28;120292;-79
2022/06/19 03:25:52;;;;;;;11.75;3.10;;;;;;;17.45;61.85;100952.88;4918918;28;119269;-79
2022/06/19 03:28:17;;;;;;;10.27;3.15;;;;;;;17.36;61.80;100920.53;4935765;28;119957;-80
2022/06/19 03:30:43;;;;;;;11.98;3.00;;;;;;;17.32;62.03;100874.88;4950242;28;119340;-79
2022/06/19 03:33:09;;;;;;;11.43;2.88;;;;;;;17.22;62.21;100887.41;4951587;28;119757;-79
2022/06/19 03:35:34;;;;;;;;;;;;;;;17.08;62.00;100873.19;4939392;28;119708;-80
2022/06/19 03:38:00;;;;;;;11.98;3.10;;;;;;;16.99;63.05;100859.47;4926509;28;120077;-80
2022/06/19 03:40:29;;;;;;;12.32;3.63;;;;;;;16.96;63.44;100882.63;4934304;28;119868;-80
2022/06/19 03:42:58;;;;;;;11.25;3.72;;;;;;;16.91;63.99;100893.66;4934049;28;119472;-81
2022/06/19 03:45:23;;;;;;;9.15;3.28;;;;;;;16.96;64.54;100904.81;4917507;28;119472;-80
2022/06/19 03:47:49;;;;;;;10.07;3.45;;;;;;;16.93;65.26;100883.63;4933706;28;120091;-80
2022/06/19 03:50:18;;;;;;;14.40;3.80;;;;;;;16.98;65.57;100896.75;4934266;28;119617;-79
2022/06/19 03:52:47;;;;;;;11.20;3.38;;;;;;;16.99;65.17;100898.28;4915768;28;119771;-81
2022/06/19 03:55:14;;;;;;;12.88;3.30;;;;;;;16.94;64.72;100807.56;4920046;28;119821;-79
2022/06/19 03:57:40;;;;;;;12.95;3.88;;;;;;;16.89;65.01;100830.44;4915212;28;119865;-79
2022/06/19 04:00:08;;;;;;;11.48;3.33;;;;;;;16.94;65.35;100862.97;4929386;28;119825;-80
2022/06/19 04:02:37;;;;;;;15.45;4.32;;;;;;;16.89;65.35;100808.28;4932872;28;120132;-81
2022/06/19 04:05:04;;;;;;;13.50;3.38;;;;;;;16.84;64.68;100797.91;4934990;28;119715;-79
2022/06/19 04:07:29;;;;;;;15.38;4.20;;;;;;;16.66;64.95;100792.69;4913222;28;119919;-79
2022/06/19 04:10:00;;;;;;;15.57;4.53;;;;;;;16.50;65.75;100783.72;4932756;28;119436;-80
2022/06/19 04:12:25;;;;;;;21.23;5.93;;;;;;;16.36;66.21;100792.91;4919869;28;119466;-79
2022/06/19 04:14:52;;;;;;;14.60;4.03;;;;;;;16.22;66.38;100785.44;4917467;28;119451;-80
2022/06/19 04:17:18;;;;;;;13.20;3.88;;;;;;;16.00;65.73;100807.31;4936240;28;122203;-79
2022/06/19 04:19:43;;;;;;;26.42;5.53;;;;;;;15.94;66.76;100813.53;4931302;28;121280;-80
2022/06/19 04:22:09;;;;;;;20.98;5.13;;;;;;;15.84;67.24;100792.78;4927894;28;119512;-78
2022/06/19 04:24:35;;;;;;;16.13;4.72;;;;;;;15.87;68.14;100791.84;4930855;28;119367;-80
2022/06/19 04:27:05;;;;;;;13.57;3.83;;;;;;;15.85;67.61;100808.16;4934157;28;119540;-79
2022/06/19 04:29:31;;;;;;;14.25;4.13;;;;;;;15.80;67.66;100802.53;4929277;28;121364;-80
2022/06/19 04:31:57;;;;;;;18.48;4.35;;;;;;;15.75;68.48;100794.94;4929773;28;120248;-80
2022/06/19 04:34:23;;;;;;;14.27;4.40;;;;;;;15.77;68.58;100775.84;4934118;28;120000;-79
2022/06/19 04:36:49;;;;;;;12.38;3.72;;;;;;;15.82;67.87;100762.09;4932598;28;119580;-80
2022/06/19 04:39:15;;;;;;;17.60;4.28;;;;;;;15.78;68.43;100761.53;4938562;28;120207;-80
2022/06/19 04:41:43;;;;;;;12.90;4.25;;;;;;;15.81;68.81;100851.84;4925427;28;119675;-79
2022/06/19 04:44:14;;;;;;;24.55;5.03;;;;;;;15.85;68.98;100935.41;4935436;28;119440;-80
2022/06/19 04:46:40;;;;;;;19.40;4.97;;;;;;;15.86;69.39;100939.69;4934271;28;119905;-81
2022/06/19 04:49:06;;;;;;;16.35;3.80;;;;;;;15.84;69.30;100891.59;4935151;28;119205;-80
2022/06/19 04:51:32;;;;;;;60.00;8.43;;;;;;;15.92;69.06;100849.22;4915390;28;119404;-80
2022/06/19 04:53:58;;;;;;;23.98;5.15;;;;;;;15.92;68.45;100843.69;4936567;28;119586;-80
2022/06/19 04:56:23;;;;;;;11.13;4.38;;;;;;;15.86;68.12;100870.53;4909097;28;121517;-80
2022/06/19 04:58:51;;;;;;;28.85;6.30;;;;;;;15.89;68.55;100900.00;4913918;28;119972;-79
2022/06/19 05:01:23;;;;;;;58.33;7.95;;;;;;;15.90;68.57;100884.91;4933160;28;119359;-79
2022/06/19 05:03:55;;;;;;;13.70;4.75;;;;;;;15.90;68.57;100856.50;4933611;28;119830;-79
2022/06/19 05:06:21;;;;;;;15.45;5.07;;;;;;;15.92;68.88;100849.22;4934869;28;119719;-79
2022/06/19 05:08:47;;;;;;;12.88;3.97;;;;;;;15.95;68.98;100833.66;4933599;28;120155;-80
2022/06/19 05:11:16;;;;;;;15.90;4.07;;;;;;;15.91;68.59;100822.81;4928767;28;119394;-79
2022/06/19 05:14:05;;;;;;;9.80;3.58;;;;;;;15.79;67.57;100796.25;4932328;28;119522;-80
2022/06/19 05:16:31;;;;;;;14.32;3.50;;;;;;;15.75;67.65;100775.56;4922680;28;123392;-79
2022/06/19 05:19:23;;;;;;;18.83;4.75;;;;;;;15.83;68.30;100791.25;4885655;28;120037;-79
2022/06/19 05:21:49;;;;;;;15.88;4.28;;;;;;;15.85;68.43;100799.06;4898449;28;121076;-80
2022/06/19 05:24:14;;;;;;;10.43;3.47;;;;;;;15.86;68.44;100834.56;4932878;28;120090;-80
2022/06/19 05:26:50;;;;;;;20.73;4.72;;;;;;;15.85;68.84;100851.63;4925612;28;121189;-80
2022/06/19 05:29:15;;;;;;;18.17;4.20;;;;;;;15.89;69.10;100866.81;4914044;28;120241;-81
2022/06/19 05:31:42;;;;;;;56.90;8.27;;;;;;;15.96;68.89;100871.91;4923823;28;119580;-80
2022/06/19 05:34:08;;;;;;;22.27;4.22;;;;;;;16.01;68.90;100866.94;4917792;28;119990;-81
2022/06/19 05:36:33;;;;;;;7.28;3.30;;;;;;;16.04;67.94;100839.06;4934032;28;119432;-79
2022/06/19 05:38:59;;;;;;;13.90;3.45;;;;;;;16.03;67.91;100837.53;4917036;28;119303;-80
2022/06/19 05:41:43;;;;;;;13.82;3.53;;;;;;;15.97;67.42;100839.47;4932542;28;119169;-79
2022/06/19 05:44:12;;;;;;;20.63;3.95;;;;;;;15.89;67.77;100844.66;4914913;28;120136;-79
2022/06/19 05:46:38;;;;;;;9.02;3.25;;;;;;;15.97;68.36;100875.44;4918455;28;119713;-80
2022/06/19 05:49:04;;;;;;;21.25;4.35;;;;;;;15.95;68.80;100881.47;4915752;28;119781;-80
2022/06/19 05:51:30;;;;;;;12.55;4.15;;;;;;;16.00;69.16;100899.38;4939120;28;119586;-80
2022/06/19 05:53:57;;;;;;;14.88;3.90;;;;;;;16.11;69.21;100893.25;4921897;28;121228;-80
2022/06/19 05:56:24;;;;;;;25.60;5.00;;;;;;;16.14;69.04;100887.50;4918425;28;120041;-79
2022/06/19 05:58:50;;;;;;;23.27;4.20;;;;;;;16.17;68.97;100872.69;4925798;28;119364;-80
2022/06/19 06:01:17;;;;;;;10.65;3.92;;;;;;;16.18;68.40;100816.09;4922268;28;119386;-79
2022/06/19 06:03:43;;;;;;;9.02;3.30;;;;;;;16.14;67.46;100746.38;4913949;28;121835;-79
2022/06/19 06:06:18;;;;;;;8.50;3.03;;;;;;;16.07;66.97;100741.25;4920569;28;119847;-78
2022/06/19 06:08:45;;;;;;;12.45;3.70;;;;;;;16.05;67.63;100839.81;4924334;28;118474;-81
2022/06/19 06:11:14;;;;;;;17.63;4.00;;;;;;;16.02;68.67;100847.09;4939179;28;119790;-80
2022/06/19 06:13:40;;;;;;;9.50;3.25;;;;;;;16.14;68.12;100848.00;4944976;28;119631;-79
2022/06/19 06:16:07;;;;;;;15.85;4.53;;;;;;;16.19;68.60;100874.97;4958484;28;120158;-79
2022/06/19 06:18:33;;;;;;;24.00;4.35;;;;;;;16.24;68.70;100874.28;4959599;28;119308;-80
2022/06/19 06:21:08;;;;;;;10.93;4.10;;;;;;;16.27;68.63;100848.38;4945884;28;119240;-80
2022/06/19 06:23:34;;;;;;;17.48;4.00;;;;;;;16.29;68.60;100843.13;4931845;28;122028;-80
2022/06/19 06:26:00;;;;;;;9.35;3.67;;;;;;;16.32;68.86;100824.78;4940915;28;119622;-80
2022/06/19 06:28:28;;;;;;;12.38;4.28;;;;;;;16.36;68.95;100790.13;4959194;28;119598;-80
2022/06/19 06:31:11;;;;;;;19.20;4.63;;;;;;;16.39;68.84;100769.78;4939771;28;119301;-79
2022/06/19 06:33:38;;;;;;;9.30;3.85;;;;;;;16.38;68.01;100779.31;4937773;28;119550;-79
2022/06/19 06:36:04;;;;;;;14.98;4.30;;;;;;;16.38;67.99;100781.34;4922202;28;119838;-81
2022/06/19 06:38:30;;;;;;;11.45;4.15;;;;;;;16.37;68.49;100755.66;4939893;28;119810;-80
2022/06/19 06:40:59;;;;;;;10.68;3.90;;;;;;;16.37;68.24;100743.84;4923347;28;121083;-81
2022/06/19 06:43:25;;;;;;;19.42;6.20;;;;;;;16.48;68.42;100747.44;4927950;28;119820;-80
2022/06/19 06:45:51;;;;;;;17.30;6.68;;;;;;;16.50;68.18;100741.41;4922261;28;119379;-79
2022/06/19 06:48:19;;;;;;;14.02;6.90;;;;;;;16.52;68.26;100714.00;4931834;28;119425;-79
2022/06/19 06:50:45;;;;;;;11.18;4.55;;;;;;;16.48;67.90;100692.06;4949306;28;119337;-80
2022/06/19 06:53:17;;;;;;;13.93;4.72;;;;;;;16.47;68.18;100682.25;4932246;28;119306;-79
2022/06/19 06:55:44;;;;;;;15.07;4.07;;;;;;;16.52;68.05;100692.59;4919976;28;120061;-79
2022/06/19 06:58:11;;;;;;;12.95;4.15;;;;;;;16.49;67.90;100696.34;4940630;28;119535;-80
2022/06/19 07:00:37;;;;;;;11.88;3.67;;;;;;;16.43;67.80;100681.72;4918922;28;119759;-79
2022/06/19 07:03:03;;;;;;;10.05;3.88;;;;;;;16.41;68.13;100667.63;4915994;28;120617;-79
2022/06/19 07:05:30;;;;;;;13.27;3.60;;;;;;;16.42;68.03;100663.59;4931293;28;119681;-80
2022/06/19 07:07:59;;;;;;;10.68;3.70;;;;;;;16.46;68.32;100666.13;4916405;28;119484;-79
2022/06/19 07:10:43;;;;;;;12.13;3.65;;;;;;;16.46;68.41;100657.81;4913456;28;119869;-79
2022/06/19 07:13:10;;;;;;;9.77;3.35;;;;;;;16.51;68.05;100671.72;4937340;28;119183;-79
2022/06/19 07:15:35;;;;;;;9.65;3.63;;;;;;;16.49;68.56;100667.91;4916417;28;120129;-80
2022/06/19 07:18:01;;;;;;;10.35;3.80;;;;;;;16.57;68.48;100675.31;4916206;28;119401;-79
2022/06/19 07:20:27;;;;;;;15.60;4.03;;;;;;;16.62;68.81;100656.44;4915728;28;119432;-80
2022/06/19 07:22:53;;;;;;;18.75;4.97;;;;;;;16.71;69.26;100634.88;4923480;28;119513;-79
2022/06/19 07:25:20;;;;;;;14.93;4.93;;;;;;;16.83;69.99;100630.94;4935864;28;119778;-80
2022/06/19 07:27:47;;;;;;;15.25;4.45;;;;;;;16.89;69.00;100630.97;4935588;28;119752;-80
2022/06/19 07:30:22;;;;;;;10.75;3.92;;;;;;;16.89;68.10;100628.19;4917990;28;121006;-80
2022/06/19 07:32:48;;;;;;;11.63;3.72;;;;;;;16.91;68.57;100634.00;4936823;28;119898;-80
2022/06/19 07:35:15;;;;;;;9.98;4.07;;;;;;;16.84;68.31;100628.94;4904308;28;120097;-80
2022/06/19 07:37:40;;;;;;;10.00;3.60;;;;;;;16.91;68.30;100645.06;4915762;28;119223;-79
2022/06/19 07:40:07;;;;;;;10.93;3.55;;;;;;;16.89;67.70;100661.44;4940336;28;120665;-80
2022/06/19 07:42:33;;;;;;;12.80;3.70;;;;;;;16.93;68.14;100675.06;4950248;28;119436;-80
2022/06/19 07:44:59;;;;;;;8.73;3.85;;;;;;;16.90;68.87;100656.66;4928420;28;119545;-79
2022/06/19 07:50:17;;;;;;;9.48;3.47;;;;;;;17.09;68.73;100663.31;4933677;28;120134;-80
2022/06/19 07:52:50;;;;;;;10.18;3.20;;;;;;;17.14;67.98;100690.31;4913879;28;119366;-80
2022/06/19 07:55:19;;;;;;;15.40;3.80;;;;;;;17.09;68.24;100689.03;4933703;28;119363;-79
2022/06/19 07:57:46;;;;;;;12.45;4.13;;;;;;;17.18;68.55;100694.34;4933418;28;119950;-80
2022/06/19 08:00:18;;;;;;;10.38;3.58;;;;;;;17.21;68.82;100683.53;4935796;28;119312;-80
2022/06/19 08:02:49;;;;;;;16.77;4.25;;;;;;;17.31;68.90;100687.63;4941139;28;119316;-80
2022/06/19 08:05:19;;;;;;;7.43;3.40;;;;;;;17.37;68.08;100680.09;4935369;28;120051;-80
2022/06/19 08:07:45;;;;;;;8.35;3.47;;;;;;;17.37;67.45;100688.41;4899015;28;119524;-80
2022/06/19 08:10:20;;;;;;;17.20;4.78;;;;;;;17.38;68.15;100687.16;4914275;28;122107;-79
2022/06/19 08:12:47;;;;;;;10.20;4.32;;;;;;;17.43;68.42;100694.72;4904900;28;119963;-79
2022/06/19 08:15:14;;;;;;;12.43;4.75;;;;;;;17.47;68.64;100703.56;4915735;28;119424;-79
2022/06/19 08:17:40;;;;;;;11.35;4.32;;;;;;;17.46;68.34;100721.47;4928502;28;120582;-79
2022/06/19 08:20:06;;;;;;;9.15;3.65;;;;;;;17.42;67.37;100709.84;4939490;28;119549;-80
2022/06/19 08:22:32;;;;;;;10.68;4.40;;;;;;;17.50;67.73;100730.28;4933335;28;120405;-80
2022/06/19 08:24:58;;;;;;;12.77;4.40;;;;;;;17.45;68.07;100750.44;4933544;28;119547;-79
2022/06/19 08:27:24;;;;;;;10.63;3.83;;;;;;;17.49;67.47;100770.38;4935474;28;119528;-79
2022/06/19 08:29:49;;;;;;;14.27;4.63;;;;;;;17.43;66.81;100772.38;4920492;28;120879;-80
2022/06/19 08:32:45;;;;;;;13.93;4.32;;;;;;;17.41;67.52;100772.09;4914692;28;119345;-79
2022/06/19 08:35:22;;;;;;;12.73;4.68;;;;;;;17.40;67.85;100809.41;4934506;28;119999;-79
2022/06/19 08:37:53;;;;;;;20.40;5.05;;;;;;;17.38;68.32;100817.47;4933320;28;119440;-79
2022/06/19 08:40:25;;;;;;;16.15;5.07;;;;;;;17.42;68.18;100806.91;4918612;28;120019;-80
2022/06/19 08:43:04;;;;;;;15.38;5.20;;;;;;;17.40;68.38;100810.16;4920764;28;119727;-79
2022/06/19 08:45:35;;;;;;;12.65;5.53;;;;;;;17.38;68.38;100803.59;4948286;28;119742;-79
2022/06/19 08:48:01;;;;;;;17.08;6.68;;;;;;;17.41;68.80;100805.38;4934708;28;119168;-79
2022/06/19 08:50:41;;;;;;;13.20;6.55;;;;;;;17.43;68.55;100811.19;4944541;28;119517;-80
2022/06/19 08:53:13;;;;;;;12.48;6.70;;;;;;;17.42;68.78;100807.66;4924214;28;119385;-79
2022/06/19 08:55:45;;;;;;;10.15;5.05;;;;;;;17.36;68.40;100803.34;4924158;28;120038;-80
2022/06/19 08:58:37;;;;;;;10.75;4.57;;;;;;;17.35;68.17;100808.13;4925692;28;119425;-80
2022/06/19 09:01:28;;;;;;;9.88;3.92;;;;;;;17.30;67.68;100822.72;4933387;28;119280;-79
2022/06/19 09:06:57;;;;;;;;;;;;;;;17.14;67.55;100831.66;4948916;28;119746;-80
2022/06/19 09:09:41;;;;;;;13.63;4.60;;;;;;;17.13;67.97;100841.22;4953037;28;119729;-80
2022/06/19 09:12:13;;;;;;;15.70;4.80;;;;;;;17.13;68.44;100839.22;4938306;28;121084;-80
2022/06/19 09:14:48;;;;;;;16.75;4.88;;;;;;;17.12;68.46;100834.91;4917930;28;119293;-79
2022/06/19 09:17:37;;;;;;;10.85;5.07;;;;;;;17.11;68.30;100844.47;4900533;28;119415;-79
2022/06/19 09:20:37;;;;;;;14.77;5.53;;;;;;;17.11;68.74;100850.03;4932795;28;119771;-80
2022/06/19 09:23:25;;;;;;;16.42;5.70;;;;;;;17.13;68.62;100836.44;4923853;28;119561;-79
2022/06/19 09:25:59;;;;;;;17.63;5.50;;;;;;;17.13;69.12;100841.97;4926876;28;119924;-79
2022/06/19 09:28:28;;;;;;;;;;;;;;;17.12;68.59;100840.47;4934011;28;120143;-79
2022/06/19 09:31:09;;;;;;;11.48;5.65;;;;;;;17.16;69.05;100841.00;4932673;28;119523;-79
2022/06/19 09:33:43;;;;;;;13.48;5.57;;;;;;;17.17;68.96;100839.75;4946338;28;119753;-80
2022/06/19 09:36:30;;;;;;;20.13;5.15;;;;;;;17.13;68.15;100835.69;4925443;28;119463;-80
2022/06/19 09:39:02;;;;;;;12.45;4.03;;;;;;;17.08;67.70;100828.84;4929335;28;119518;-80
2022/06/19 09:42:06;;;;;;;11.13;3.15;;;;;;;16.96;67.03;100824.44;4846654;28;120046;-79
2022/06/19 09:44:51;;;;;;;8.75;3.60;;;;;;;16.98;67.05;100835.03;4932545;28;119571;-79
2022/06/19 09:47:30;;;;;;;13.32;4.18;;;;;;;16.92;67.55;100832.22;4927333;28;119634;-79
2022/06/19 09:50:21;;;;;;;11.90;3.70;;;;;;;16.90;67.10;100859.66;4930103;28;119856;-80
2022/06/19 09:53:07;;;;;;;13.15;4.35;;;;;;;16.88;67.82;100854.63;4932712;28;119645;-81
2022/06/19 09:55:47;;;;;;;14.10;4.80;;;;;;;16.92;68.66;100862.69;4927291;28;120530;-79
2022/06/19 09:58:24;;;;;;;9.18;4.05;;;;;;;16.92;68.48;100862.69;4927830;28;119715;-79
2022/06/19 10:00:55;;;;;;;14.07;4.88;;;;;;;16.98;68.64;100873.81;4927554;28;120312;-79
2022/06/19 10:03:39;;;;;;;18.58;5.50;;;;;;;17.02;68.63;100868.81;4922755;28;119425;-79
2022/06/19 10:06:14;;;;;;;;;;;;;;;17.02;68.25;100886.22;4929777;28;119806;-80
2022/06/19 10:08:54;;;;;;;;;;;;;;;17.03;68.22;100886.97;4939140;28;119331;-80
2022/06/19 10:11:38;;;;;;;16.98;5.70;;;;;;;17.06;68.56;100894.31;4929648;28;119330;-79
2022/06/19 10:14:05;;;;;;;14.13;5.13;;;;;;;17.09;68.58;100905.19;4927521;28;119851;-80
2022/06/19 10:16:47;;;;;;;12.75;5.00;;;;;;;17.08;68.32;100906.44;4933763;28;120349;-79
2022/06/19 10:19:31;;;;;;;12.40;6.72;;;;;;;17.06;68.25;100905.41;4929338;28;120255;-80
2022/06/19 10:22:15;;;;;;;14.90;5.53;;;;;;;17.06;68.41;100895.09;4929529;28;120094;-80
2022/06/19 10:24:46;;;;;;;15.93;5.00;;;;;;;17.08;68.49;100900.91;4925858;28;121162;-79
2022/06/19 10:27:57;;;;;;;12.30;5.20;;;;;;;17.07;69.13;100896.59;4939889;28;120030;-79
2022/06/19 10:30:45;;;;;;;14.38;5.55;;;;;;;17.13;68.60;100902.94;4945245;28;119718;-80
2022/06/19 10:33:47;;;;;;;12.40;5.15;;;;;;;17.14;68.57;100892.63;4921006;28;122165;-78
2022/06/19 10:36:31;;;;;;;16.98;5.82;;;;;;;17.10;68.32;100886.56;4912876;28;119572;-80
2022/06/19 10:39:17;;;;;;;17.25;6.22;;;;;;;17.13;68.72;100891.09;4932272;28;120120;-79
2022/06/19 10:42:01;;;;;;;16.13;5.90;;;;;;;17.17;68.06;100880.56;4930198;28;119620;-80
2022/06/19 10:44:30;;;;;;;14.27;5.65;;;;;;;17.17;67.82;100863.91;4931844;28;119649;-80
2022/06/19 10:47:11;;;;;;;15.75;6.63;;;;;;;17.18;68.27;100854.34;4932935;28;120126;-80
2022/06/19 10:50:15;;;;;;;17.13;6.95;;;;;;;17.28;68.54;100868.81;4930321;28;119896;-79
2022/06/19 10:53:14;;;;;;;16.92;6.57;;;;;;;17.34;68.68;100858.53;4946865;28;119495;-78
2022/06/19 10:55:44;;;;;;;20.92;6.30;;;;;;;17.43;68.97;100852.78;4918030;28;119684;-79
2022/06/19 10:58:19;;;;;;;17.15;6.60;;;;;;;17.54;69.49;100841.00;4922699;28;120320;-79
2022/06/19 11:00:51;;;;;;;11.55;4.95;;;;;;;17.66;67.36;100842.59;4919699;28;121771;-79
2022/06/19 11:04:10;;;;;;;15.00;5.30;;;;;;;17.71;67.60;100839.88;4933271;28;119700;-79
2022/06/19 11:07:16;;;;;;;12.98;5.70;;;;;;;17.79;67.83;100845.72;4929416;28;119439;-80
2022/06/19 11:09:48;;;;;;;10.70;5.50;;;;;;;17.86;67.59;100838.94;4909392;28;121766;-79
2022/06/19 11:12:37;;;;;;;9.63;5.47;;;;;;;17.92;67.85;100834.19;4920047;28;119785;-79
2022/06/19 11:15:08;;;;;;;9.82;4.45;;;;;;;17.93;67.18;100844.03;4930821;28;121722;-79
2022/06/19 11:17:37;;;;;;;9.38;4.25;;;;;;;17.96;66.67;100845.78;4931637;28;120384;-79
2022/06/19 11:20:27;;;;;;;7.75;4.30;;;;;;;17.98;66.65;100841.28;4934746;28;119499;-79
2022/06/19 11:23:23;;;;;;;11.75;4.07;;;;;;;17.98;66.82;100813.53;4930755;28;119443;-80
2022/06/19 11:26:10;;;;;;;7.38;3.97;;;;;;;17.99;65.21;100815.06;4927769;28;119662;-79
2022/06/19 11:28:48;;;;;;;9.77;4.10;;;;;;;18.00;66.63;100815.81;4935179;28;119610;-79
2022/06/19 11:31:24;;;;;;;8.82;4.00;;;;;;;18.05;66.37;100813.06;4928683;28;119724;-79
2022/06/19 11:33:59;;;;;;;12.10;3.58;;;;;;;18.06;66.87;100797.91;4933234;28;119509;-80
2022/06/19 11:36:34;;;;;;;8.60;3.65;;;;;;;18.18;67.13;100801.47;4936923;28;119763;-80
2022/06/19 11:39:31;;;;;;;8.60;3.40;;;;;;;18.21;66.59;100791.38;4930908;28;120810;-80
2022/06/19 11:42:19;;;;;;;8.07;2.92;;;;;;;18.23;65.99;100783.34;4910927;28;119655;-79
2022/06/19 11:45:14;;;;;;;7.90;3.13;;;;;;;18.24;65.97;100784.84;4933697;28;119622;-79